Viimsi — ES2084 — position and weather

sailwx.info

Track history (hours):
 
Tides and Currents Weather Stations Pressure Air Temp Water Temp Dewpoint Dewpoint Depression Visibility Wind Speed Wind Dir Waves Ship Positions

Viimsi

Last reported at 2014-Oct-23 07:33 UTC. Time now 2014-Oct-23 09:24 UTC.
Position N 59°28' E 024°36'.

Length 78 m; draft 5 m.

Type: Ship. MMSI: 276297000.

Date/timePositionNaut miles runAvg speedWind from/ knotsBaromVisibWave heightAir tempDewpointWater temp
2014-Oct-23 07:33N 59°28' E 024°36'1 1.4
2014-Oct-23 06:33N 59°28' E 024°39'0 0.0
2014-Oct-23 05:33N 59°28' E 024°39'0 0.0
2014-Oct-23 04:33N 59°28' E 024°39'0 0.0
2014-Oct-23 03:33N 59°28' E 024°39'0 0.0
2014-Oct-23 02:33N 59°28' E 024°39'0 0.0
2014-Oct-23 01:33N 59°28' E 024°39'0 0.0
2014-Oct-23 00:33N 59°28' E 024°39'0 0.0
2014-Oct-22 23:33N 59°28' E 024°39'0 0.0
2014-Oct-22 22:33N 59°28' E 024°39'0 0.0
2014-Oct-22 21:33N 59°28' E 024°39'0 0.0
2014-Oct-22 20:33N 59°28' E 024°39'5 4.8
2014-Oct-22 19:33N 59°31' E 024°32'1 1.3
2014-Oct-22 18:33N 59°32' E 024°30'0 0.0
2014-Oct-22 17:33N 59°32' E 024°30'0 0.0
2014-Oct-22 16:33N 59°32' E 024°30'0 0.0
2014-Oct-22 15:33N 59°32' E 024°30'0 0.2
2014-Oct-22 14:34N 59°32' E 024°30'0 0.1
2014-Oct-22 13:33N 59°32' E 024°30'0 0.0
2014-Oct-22 12:33N 59°32' E 024°30'0 0.0
2014-Oct-22 11:33N 59°32' E 024°30'0 0.0
2014-Oct-22 10:34N 59°32' E 024°30'0 0.0
2014-Oct-22 09:33N 59°32' E 024°30'0 0.3
2014-Oct-22 08:34N 59°32' E 024°30'0 0.0
2014-Oct-22 07:33N 59°32' E 024°30'0 0.0
2014-Oct-22 06:33N 59°32' E 024°30'0 0.0
2014-Oct-22 05:33N 59°32' E 024°30'0 0.0
2014-Oct-22 04:33N 59°32' E 024°30'0 0.0
2014-Oct-22 03:33N 59°32' E 024°30'0 0.0
2014-Oct-22 02:33N 59°32' E 024°30'0 0.1
2014-Oct-22 01:33N 59°32' E 024°30'7 6.9
2014-Oct-22 00:33N 59°30' E 024°43'4 3.8
2014-Oct-21 23:33N 59°27' E 024°46'0 0.0
2014-Oct-21 22:33N 59°27' E 024°46'0 0.1
2014-Oct-21 21:33N 59°27' E 024°46'3 3.5
2014-Oct-21 20:33N 59°30' E 024°43'3 2.8
2014-Oct-21 19:33N 59°28' E 024°39'0 0.0
2014-Oct-21 18:33N 59°28' E 024°39'0 0.0
2014-Oct-21 17:33N 59°28' E 024°39'0 0.0
2014-Oct-21 16:33N 59°28' E 024°39'0 0.0
2014-Oct-21 15:33N 59°28' E 024°39'0 0.0
2014-Oct-21 14:33N 59°28' E 024°39'0 0.0
2014-Oct-21 13:33N 59°28' E 024°39'0 0.0
2014-Oct-21 12:08N 59°28' E 024°39'0 0.0
2014-Oct-21 11:33N 59°28' E 024°39'0 0.0
2014-Oct-21 10:33N 59°28' E 024°39'0 0.0
2014-Oct-21 09:33N 59°28' E 024°39'0 0.1
2014-Oct-21 08:33N 59°28' E 024°39'0 0.0
2014-Oct-21 07:33N 59°28' E 024°39'0 0.0
2014-Oct-21 06:33N 59°28' E 024°39'0 0.0
2014-Oct-21 05:33N 59°28' E 024°39'0 0.0
2014-Oct-21 04:33N 59°28' E 024°39'0 0.0
2014-Oct-21 03:33N 59°28' E 024°39'0 0.0
2014-Oct-21 02:33N 59°28' E 024°39'0 0.0
2014-Oct-21 01:33N 59°28' E 024°39'4 4.1
2014-Oct-21 00:33N 59°30' E 024°33'2 1.7
2014-Oct-20 23:32N 59°31' E 024°30'0 0.0
2014-Oct-20 22:33N 59°31' E 024°30'0 0.0
2014-Oct-20 21:33N 59°31' E 024°30'0 0.0
2014-Oct-20 20:33N 59°31' E 024°30'0 0.0
2014-Oct-20 19:33N 59°31' E 024°30'3 3.2
2014-Oct-20 18:32N 59°30' E 024°36'4 4.2
2014-Oct-20 17:33N 59°28' E 024°43'0 0.0
2014-Oct-20 16:33N 59°28' E 024°43'0 0.0
2014-Oct-20 15:33N 59°28' E 024°43'0 0.0
2014-Oct-20 14:33N 59°28' E 024°43'0 0.0
2014-Oct-20 13:26N 59°28' E 024°43'0 0.0
2014-Oct-20 12:33N 59°28' E 024°43'0 0.0
2014-Oct-20 11:33N 59°28' E 024°43'0 0.0
2014-Oct-20 10:33N 59°28' E 024°43'0 0.0
2014-Oct-20 09:33N 59°28' E 024°43'0 0.0
2014-Oct-20 08:33N 59°28' E 024°43'0 0.0
2014-Oct-20 07:34N 59°28' E 024°43'0 0.0
2014-Oct-20 06:34N 59°28' E 024°43'0 0.0
2014-Oct-20 05:34N 59°28' E 024°43'0 0.0
2014-Oct-20 04:33N 59°28' E 024°43'0 0.0
2014-Oct-20 03:34N 59°28' E 024°43'0 0.0
2014-Oct-20 02:34N 59°28' E 024°43'0 0.0
2014-Oct-20 01:34N 59°28' E 024°43'0 0.0
2014-Oct-20 00:34N 59°28' E 024°43'0 0.0
2014-Oct-19 23:34N 59°28' E 024°43'0 0.0
2014-Oct-19 22:34N 59°28' E 024°43'0 0.0
2014-Oct-19 21:34N 59°28' E 024°43'0 0.0
2014-Oct-19 20:34N 59°28' E 024°43'0 0.0
2014-Oct-19 19:33N 59°28' E 024°43'0 0.0
2014-Oct-19 18:34N 59°28' E 024°43'0 0.0
2014-Oct-19 17:34N 59°28' E 024°43'0 0.0
2014-Oct-19 16:34N 59°28' E 024°43'0 0.0
2014-Oct-19 15:34N 59°28' E 024°43'0 0.0
2014-Oct-19 14:34N 59°28' E 024°43'0 0.0
2014-Oct-19 13:34N 59°28' E 024°43'0 0.0
2014-Oct-19 12:33N 59°28' E 024°43'0 0.0
2014-Oct-19 11:33N 59°28' E 024°43'0 0.0
2014-Oct-19 10:33N 59°28' E 024°43'0 0.0
2014-Oct-19 09:33N 59°28' E 024°43'0 0.0
2014-Oct-19 08:33N 59°28' E 024°43'0 0.0
2014-Oct-19 07:33N 59°28' E 024°43'3 2.8
2014-Oct-19 06:33N 59°30' E 024°39'2 1.5
2014-Oct-19 05:34N 59°29' E 024°36'0 0.0
2014-Oct-19 04:33N 59°29' E 024°36'0 0.0
2014-Oct-19 03:34N 59°29' E 024°36'2 1.8
2014-Oct-19 02:34N 59°30' E 024°40'5 4.7
2014-Oct-19 01:34N 59°27' E 024°46'0 0.0
2014-Oct-19 00:34N 59°27' E 024°46'0 0.0
2014-Oct-18 23:34N 59°27' E 024°46'0 0.0
2014-Oct-18 22:34N 59°27' E 024°46'0 0.0
2014-Oct-18 21:33N 59°27' E 024°46'1 1.3
2014-Oct-18 20:34N 59°28' E 024°45'3 3.5
2014-Oct-18 19:34N 59°28' E 024°39'0 0.2
2014-Oct-18 18:33N 59°28' E 024°39'0 0.0
2014-Oct-18 17:33N 59°28' E 024°39'0 0.0
2014-Oct-18 16:33N 59°28' E 024°39'0 0.0
2014-Oct-18 15:34N 59°28' E 024°39'0 0.0
2014-Oct-18 14:34N 59°28' E 024°39'0 0.0
2014-Oct-18 13:33N 59°28' E 024°39'0 0.0
2014-Oct-18 12:34N 59°28' E 024°39'1 0.7
2014-Oct-18 11:33N 59°28' E 024°37'5 4.8
2014-Oct-18 10:33N 59°27' E 024°47'0 0.2
2014-Oct-18 09:34N 59°27' E 024°47'0 0.0
2014-Oct-18 08:33N 59°27' E 024°47'0 0.0
2014-Oct-18 07:34N 59°27' E 024°46'2 2.2
2014-Oct-18 06:34N 59°28' E 024°43'0 0.0
2014-Oct-18 05:33N 59°28' E 024°43'0 0.0
2014-Oct-18 04:34N 59°28' E 024°43'0 0.1
2014-Oct-18 03:34N 59°28' E 024°43'2 2.0
2014-Oct-18 02:33N 59°27' E 024°46'0 0.0
2014-Oct-18 01:34N 59°27' E 024°46'0 0.0
2014-Oct-18 00:33N 59°27' E 024°46'0 0.0
2014-Oct-17 23:34N 59°27' E 024°46'0 0.0
2014-Oct-17 22:33N 59°27' E 024°46'0 0.1
2014-Oct-17 21:34N 59°27' E 024°46'2 2.1
2014-Oct-17 20:34N 59°28' E 024°43'0 0.0
2014-Oct-17 19:34N 59°28' E 024°43'0 0.0
2014-Oct-17 18:34N 59°28' E 024°43'0 0.0
2014-Oct-17 17:34N 59°28' E 024°43'3 3.1
2014-Oct-17 16:34N 59°30' E 024°39'5 0.1
2014-Oct-16 05:34N 59°31' E 024°31'0 0.0
2014-Oct-16 04:33N 59°31' E 024°31'0 0.0
2014-Oct-16 03:33N 59°31' E 024°31'0 0.3
2014-Oct-16 02:33N 59°31' E 024°31'3 2.6
2014-Oct-16 01:33N 59°29' E 024°34'3 2.8
2014-Oct-16 00:34N 59°28' E 024°39'0 0.0
2014-Oct-15 23:34N 59°28' E 024°39'0 0.0
2014-Oct-15 22:34N 59°28' E 024°39'0 0.0
2014-Oct-15 21:34N 59°28' E 024°39'0 0.0
2014-Oct-15 20:33N 59°28' E 024°39'0 0.0
2014-Oct-15 19:34N 59°28' E 024°39'0 0.0
2014-Oct-15 18:34N 59°28' E 024°39'0 0.1
2014-Oct-15 17:34N 59°28' E 024°39'0 0.0
2014-Oct-15 16:34N 59°28' E 024°39'0 0.0
2014-Oct-15 15:34N 59°28' E 024°39'0 0.0
2014-Oct-15 14:33N 59°28' E 024°39'0 0.0
2014-Oct-15 13:34N 59°28' E 024°39'0 0.0
2014-Oct-15 12:34N 59°28' E 024°39'0 0.0
2014-Oct-15 11:33N 59°28' E 024°39'0 0.0
2014-Oct-15 10:34N 59°28' E 024°39'0 0.0
2014-Oct-15 09:33N 59°28' E 024°39'0 0.0
2014-Oct-15 08:33N 59°28' E 024°39'0 0.0
2014-Oct-15 07:33N 59°28' E 024°39'0 0.0
2014-Oct-15 06:34N 59°28' E 024°39'0 0.0
2014-Oct-15 05:33N 59°28' E 024°39'0 0.0
2014-Oct-15 04:33N 59°28' E 024°39'0 0.0
2014-Oct-15 03:33N 59°28' E 024°39'0 0.0
2014-Oct-15 02:34N 59°28' E 024°39'0 0.0
2014-Oct-15 01:34N 59°28' E 024°39'0 0.0
2014-Oct-15 00:34N 59°28' E 024°39'0 0.0
2014-Oct-14 23:34N 59°28' E 024°39'0 0.0
2014-Oct-14 22:34N 59°28' E 024°39'0 0.0
2014-Oct-14 21:34N 59°28' E 024°39'0 0.0
2014-Oct-14 20:34N 59°28' E 024°39'0 0.0
2014-Oct-14 19:33N 59°28' E 024°39'0 0.0
2014-Oct-14 18:34N 59°28' E 024°39'0 0.0
2014-Oct-14 17:34N 59°28' E 024°39'0 0.0
2014-Oct-14 16:34N 59°28' E 024°39'0 0.0
2014-Oct-14 15:34N 59°28' E 024°39'0 0.0
2014-Oct-14 14:33N 59°28' E 024°39'0 0.2
2014-Oct-14 13:33N 59°28' E 024°39'0 0.0
2014-Oct-14 12:34N 59°28' E 024°39'0 0.0
2014-Oct-14 11:33N 59°28' E 024°39'0 0.0
2014-Oct-14 10:34N 59°28' E 024°39'0 0.0
2014-Oct-14 09:33N 59°28' E 024°39'0 0.0
2014-Oct-14 08:32N 59°28' E 024°39'0 0.1
2014-Oct-14 07:32N 59°28' E 024°39'1 0.6
2014-Oct-14 06:11N 59°27' E 024°37'0 0.0
2014-Oct-14 05:15N 59°27' E 024°37'0 0.0
2014-Oct-14 04:34N 59°27' E 024°37'0 0.0
2014-Oct-14 03:17N 59°27' E 024°37'0 0.0
2014-Oct-14 02:33N 59°27' E 024°37'0 0.0
2014-Oct-14 01:33N 59°27' E 024°37'0 0.0
2014-Oct-14 00:33N 59°27' E 024°37'3 2.7
2014-Oct-13 23:30N 59°29' E 024°33'  
Track history (hours):
 
Tides and Currents Weather Stations Pressure Air Temp Water Temp Dewpoint Dewpoint Depression Visibility Wind Speed Wind Dir Waves Ship Positions

Viimsi

Last reported at 2014-Oct-23 07:33 UTC. Time now 2014-Oct-23 09:24 UTC.
Position N 59°28' E 024°36'.

Length 78 m; draft 5 m.

Type: Ship. MMSI: 276297000.

Date/timePositionNaut miles runAvg speedWind from/ knotsBaromVisibWave heightAir tempDewpointWater temp
2014-Oct-23 07:33N 59°28' E 024°36'1 1.4
2014-Oct-23 06:33N 59°28' E 024°39'0 0.0
2014-Oct-23 05:33N 59°28' E 024°39'0 0.0
2014-Oct-23 04:33N 59°28' E 024°39'0 0.0
2014-Oct-23 03:33N 59°28' E 024°39'0 0.0
2014-Oct-23 02:33N 59°28' E 024°39'0 0.0
2014-Oct-23 01:33N 59°28' E 024°39'0 0.0
2014-Oct-23 00:33N 59°28' E 024°39'0 0.0
2014-Oct-22 23:33N 59°28' E 024°39'0 0.0
2014-Oct-22 22:33N 59°28' E 024°39'0 0.0
2014-Oct-22 21:33N 59°28' E 024°39'0 0.0
2014-Oct-22 20:33N 59°28' E 024°39'5 4.8
2014-Oct-22 19:33N 59°31' E 024°32'1 1.3
2014-Oct-22 18:33N 59°32' E 024°30'0 0.0
2014-Oct-22 17:33N 59°32' E 024°30'0 0.0
2014-Oct-22 16:33N 59°32' E 024°30'0 0.0
2014-Oct-22 15:33N 59°32' E 024°30'0 0.2
2014-Oct-22 14:34N 59°32' E 024°30'0 0.1
2014-Oct-22 13:33N 59°32' E 024°30'0 0.0
2014-Oct-22 12:33N 59°32' E 024°30'0 0.0
2014-Oct-22 11:33N 59°32' E 024°30'0 0.0
2014-Oct-22 10:34N 59°32' E 024°30'0 0.0
2014-Oct-22 09:33N 59°32' E 024°30'0 0.3
2014-Oct-22 08:34N 59°32' E 024°30'0 0.0
2014-Oct-22 07:33N 59°32' E 024°30'0 0.0
2014-Oct-22 06:33N 59°32' E 024°30'0 0.0
2014-Oct-22 05:33N 59°32' E 024°30'0 0.0
2014-Oct-22 04:33N 59°32' E 024°30'0 0.0
2014-Oct-22 03:33N 59°32' E 024°30'0 0.0
2014-Oct-22 02:33N 59°32' E 024°30'0 0.1
2014-Oct-22 01:33N 59°32' E 024°30'7 6.9
2014-Oct-22 00:33N 59°30' E 024°43'4 3.8
2014-Oct-21 23:33N 59°27' E 024°46'0 0.0
2014-Oct-21 22:33N 59°27' E 024°46'0 0.1
2014-Oct-21 21:33N 59°27' E 024°46'3 3.5
2014-Oct-21 20:33N 59°30' E 024°43'3 2.8
2014-Oct-21 19:33N 59°28' E 024°39'0 0.0
2014-Oct-21 18:33N 59°28' E 024°39'0 0.0
2014-Oct-21 17:33N 59°28' E 024°39'0 0.0
2014-Oct-21 16:33N 59°28' E 024°39'0 0.0
2014-Oct-21 15:33N 59°28' E 024°39'0 0.0
2014-Oct-21 14:33N 59°28' E 024°39'0 0.0
2014-Oct-21 13:33N 59°28' E 024°39'0 0.0
2014-Oct-21 12:08N 59°28' E 024°39'0 0.0
2014-Oct-21 11:33N 59°28' E 024°39'0 0.0
2014-Oct-21 10:33N 59°28' E 024°39'0 0.0
2014-Oct-21 09:33N 59°28' E 024°39'0 0.1
2014-Oct-21 08:33N 59°28' E 024°39'0 0.0
2014-Oct-21 07:33N 59°28' E 024°39'0 0.0
2014-Oct-21 06:33N 59°28' E 024°39'0 0.0
2014-Oct-21 05:33N 59°28' E 024°39'0 0.0
2014-Oct-21 04:33N 59°28' E 024°39'0 0.0
2014-Oct-21 03:33N 59°28' E 024°39'0 0.0
2014-Oct-21 02:33N 59°28' E 024°39'0 0.0
2014-Oct-21 01:33N 59°28' E 024°39'4 4.1
2014-Oct-21 00:33N 59°30' E 024°33'2 1.7
2014-Oct-20 23:32N 59°31' E 024°30'0 0.0
2014-Oct-20 22:33N 59°31' E 024°30'0 0.0
2014-Oct-20 21:33N 59°31' E 024°30'0 0.0
2014-Oct-20 20:33N 59°31' E 024°30'0 0.0
2014-Oct-20 19:33N 59°31' E 024°30'3 3.2
2014-Oct-20 18:32N 59°30' E 024°36'4 4.2
2014-Oct-20 17:33N 59°28' E 024°43'0 0.0
2014-Oct-20 16:33N 59°28' E 024°43'0 0.0
2014-Oct-20 15:33N 59°28' E 024°43'0 0.0
2014-Oct-20 14:33N 59°28' E 024°43'0 0.0
2014-Oct-20 13:26N 59°28' E 024°43'0 0.0
2014-Oct-20 12:33N 59°28' E 024°43'0 0.0
2014-Oct-20 11:33N 59°28' E 024°43'0 0.0
2014-Oct-20 10:33N 59°28' E 024°43'0 0.0
2014-Oct-20 09:33N 59°28' E 024°43'0 0.0
2014-Oct-20 08:33N 59°28' E 024°43'0 0.0
2014-Oct-20 07:34N 59°28' E 024°43'0 0.0
2014-Oct-20 06:34N 59°28' E 024°43'0 0.0
2014-Oct-20 05:34N 59°28' E 024°43'0 0.0
2014-Oct-20 04:33N 59°28' E 024°43'0 0.0
2014-Oct-20 03:34N 59°28' E 024°43'0 0.0
2014-Oct-20 02:34N 59°28' E 024°43'0 0.0
2014-Oct-20 01:34N 59°28' E 024°43'0 0.0
2014-Oct-20 00:34N 59°28' E 024°43'0 0.0
2014-Oct-19 23:34N 59°28' E 024°43'0 0.0
2014-Oct-19 22:34N 59°28' E 024°43'0 0.0
2014-Oct-19 21:34N 59°28' E 024°43'0 0.0
2014-Oct-19 20:34N 59°28' E 024°43'0 0.0
2014-Oct-19 19:33N 59°28' E 024°43'0 0.0
2014-Oct-19 18:34N 59°28' E 024°43'0 0.0
2014-Oct-19 17:34N 59°28' E 024°43'0 0.0
2014-Oct-19 16:34N 59°28' E 024°43'0 0.0
2014-Oct-19 15:34N 59°28' E 024°43'0 0.0
2014-Oct-19 14:34N 59°28' E 024°43'0 0.0
2014-Oct-19 13:34N 59°28' E 024°43'0 0.0
2014-Oct-19 12:33N 59°28' E 024°43'0 0.0
2014-Oct-19 11:33N 59°28' E 024°43'0 0.0
2014-Oct-19 10:33N 59°28' E 024°43'0 0.0
2014-Oct-19 09:33N 59°28' E 024°43'0 0.0
2014-Oct-19 08:33N 59°28' E 024°43'0 0.0
2014-Oct-19 07:33N 59°28' E 024°43'3 2.8
2014-Oct-19 06:33N 59°30' E 024°39'2 1.5
2014-Oct-19 05:34N 59°29' E 024°36'0 0.0
2014-Oct-19 04:33N 59°29' E 024°36'0 0.0
2014-Oct-19 03:34N 59°29' E 024°36'2 1.8
2014-Oct-19 02:34N 59°30' E 024°40'5 4.7
2014-Oct-19 01:34N 59°27' E 024°46'0 0.0
2014-Oct-19 00:34N 59°27' E 024°46'0 0.0
2014-Oct-18 23:34N 59°27' E 024°46'0 0.0
2014-Oct-18 22:34N 59°27' E 024°46'0 0.0
2014-Oct-18 21:33N 59°27' E 024°46'1 1.3
2014-Oct-18 20:34N 59°28' E 024°45'3 3.5
2014-Oct-18 19:34N 59°28' E 024°39'0 0.2
2014-Oct-18 18:33N 59°28' E 024°39'0 0.0
2014-Oct-18 17:33N 59°28' E 024°39'0 0.0
2014-Oct-18 16:33N 59°28' E 024°39'0 0.0
2014-Oct-18 15:34N 59°28' E 024°39'0 0.0
2014-Oct-18 14:34N 59°28' E 024°39'0 0.0
2014-Oct-18 13:33N 59°28' E 024°39'0 0.0
2014-Oct-18 12:34N 59°28' E 024°39'1 0.7
2014-Oct-18 11:33N 59°28' E 024°37'5 4.8
2014-Oct-18 10:33N 59°27' E 024°47'0 0.2
2014-Oct-18 09:34N 59°27' E 024°47'0 0.0
2014-Oct-18 08:33N 59°27' E 024°47'0 0.0
2014-Oct-18 07:34N 59°27' E 024°46'2 2.2
2014-Oct-18 06:34N 59°28' E 024°43'0 0.0
2014-Oct-18 05:33N 59°28' E 024°43'0 0.0
2014-Oct-18 04:34N 59°28' E 024°43'0 0.1
2014-Oct-18 03:34N 59°28' E 024°43'2 2.0
2014-Oct-18 02:33N 59°27' E 024°46'0 0.0
2014-Oct-18 01:34N 59°27' E 024°46'0 0.0
2014-Oct-18 00:33N 59°27' E 024°46'0 0.0
2014-Oct-17 23:34N 59°27' E 024°46'0 0.0
2014-Oct-17 22:33N 59°27' E 024°46'0 0.1
2014-Oct-17 21:34N 59°27' E 024°46'2 2.1
2014-Oct-17 20:34N 59°28' E 024°43'0 0.0
2014-Oct-17 19:34N 59°28' E 024°43'0 0.0
2014-Oct-17 18:34N 59°28' E 024°43'0 0.0
2014-Oct-17 17:34N 59°28' E 024°43'3 3.1
2014-Oct-17 16:34N 59°30' E 024°39'5 0.1
2014-Oct-16 05:34N 59°31' E 024°31'0 0.0
2014-Oct-16 04:33N 59°31' E 024°31'0 0.0
2014-Oct-16 03:33N 59°31' E 024°31'0 0.3
2014-Oct-16 02:33N 59°31' E 024°31'3 2.6
2014-Oct-16 01:33N 59°29' E 024°34'3 2.8
2014-Oct-16 00:34N 59°28' E 024°39'0 0.0
2014-Oct-15 23:34N 59°28' E 024°39'0 0.0
2014-Oct-15 22:34N 59°28' E 024°39'0 0.0
2014-Oct-15 21:34N 59°28' E 024°39'0 0.0
2014-Oct-15 20:33N 59°28' E 024°39'0 0.0
2014-Oct-15 19:34N 59°28' E 024°39'0 0.0
2014-Oct-15 18:34N 59°28' E 024°39'0 0.1
2014-Oct-15 17:34N 59°28' E 024°39'0 0.0
2014-Oct-15 16:34N 59°28' E 024°39'0 0.0
2014-Oct-15 15:34N 59°28' E 024°39'0 0.0
2014-Oct-15 14:33N 59°28' E 024°39'0 0.0
2014-Oct-15 13:34N 59°28' E 024°39'0 0.0
2014-Oct-15 12:34N 59°28' E 024°39'0 0.0
2014-Oct-15 11:33N 59°28' E 024°39'0 0.0
2014-Oct-15 10:34N 59°28' E 024°39'0 0.0
2014-Oct-15 09:33N 59°28' E 024°39'0 0.0
2014-Oct-15 08:33N 59°28' E 024°39'0 0.0
2014-Oct-15 07:33N 59°28' E 024°39'0 0.0
2014-Oct-15 06:34N 59°28' E 024°39'0 0.0
2014-Oct-15 05:33N 59°28' E 024°39'0 0.0
2014-Oct-15 04:33N 59°28' E 024°39'0 0.0
2014-Oct-15 03:33N 59°28' E 024°39'0 0.0
2014-Oct-15 02:34N 59°28' E 024°39'0 0.0
2014-Oct-15 01:34N 59°28' E 024°39'0 0.0
2014-Oct-15 00:34N 59°28' E 024°39'0 0.0
2014-Oct-14 23:34N 59°28' E 024°39'0 0.0
2014-Oct-14 22:34N 59°28' E 024°39'0 0.0
2014-Oct-14 21:34N 59°28' E 024°39'0 0.0
2014-Oct-14 20:34N 59°28' E 024°39'0 0.0
2014-Oct-14 19:33N 59°28' E 024°39'0 0.0
2014-Oct-14 18:34N 59°28' E 024°39'0 0.0
2014-Oct-14 17:34N 59°28' E 024°39'0 0.0
2014-Oct-14 16:34N 59°28' E 024°39'0 0.0
2014-Oct-14 15:34N 59°28' E 024°39'0 0.0
2014-Oct-14 14:33N 59°28' E 024°39'0 0.2
2014-Oct-14 13:33N 59°28' E 024°39'0 0.0
2014-Oct-14 12:34N 59°28' E 024°39'0 0.0
2014-Oct-14 11:33N 59°28' E 024°39'0 0.0
2014-Oct-14 10:34N 59°28' E 024°39'0 0.0
2014-Oct-14 09:33N 59°28' E 024°39'0 0.0
2014-Oct-14 08:32N 59°28' E 024°39'0 0.1
2014-Oct-14 07:32N 59°28' E 024°39'1 0.6
2014-Oct-14 06:11N 59°27' E 024°37'0 0.0
2014-Oct-14 05:15N 59°27' E 024°37'0 0.0
2014-Oct-14 04:34N 59°27' E 024°37'0 0.0
2014-Oct-14 03:17N 59°27' E 024°37'0 0.0
2014-Oct-14 02:33N 59°27' E 024°37'0 0.0
2014-Oct-14 01:33N 59°27' E 024°37'0 0.0
2014-Oct-14 00:33N 59°27' E 024°37'3 2.7
2014-Oct-13 23:30N 59°29' E 024°33'  

Dump ship's entire track history